createdAt,value
2018-12-03T00:00:26.158Z,13.04
2018-12-03T00:05:22.398Z,13.11
2018-12-03T00:10:18.352Z,13.16
2018-12-03T00:15:14.231Z,13.05
2018-12-03T00:20:10.047Z,13.18
2018-12-03T00:25:07.077Z,13.18
2018-12-03T00:30:02.316Z,13.19
2018-12-03T00:34:59.524Z,13.18
2018-12-03T00:39:55.101Z,13.16
2018-12-03T00:44:50.567Z,13.19
2018-12-03T00:49:46.361Z,13.20
2018-12-03T00:54:41.997Z,13.15
2018-12-03T00:59:37.722Z,13.18
2018-12-03T01:04:33.557Z,13.22
2018-12-03T01:09:30.249Z,13.27
2018-12-03T01:14:26.678Z,13.30
2018-12-03T01:19:22.081Z,13.31
2018-12-03T01:24:18.131Z,13.31
2018-12-03T01:29:14.008Z,13.30
2018-12-03T01:34:10.757Z,13.25
2018-12-03T01:39:06.257Z,13.13
2018-12-03T01:44:01.996Z,13.19
2018-12-03T01:48:58.731Z,13.31
2018-12-03T01:53:54.818Z,13.33
2018-12-03T01:58:51.504Z,13.35
2018-12-03T02:03:47.307Z,13.41
2018-12-03T02:08:43.397Z,13.38
2018-12-03T02:13:39.116Z,13.30
2018-12-03T02:18:35.906Z,13.41
2018-12-03T02:23:31.424Z,13.37
2018-12-03T02:28:27.545Z,13.49
2018-12-03T02:33:23.107Z,13.39
2018-12-03T02:38:19.163Z,13.37
2018-12-03T02:43:14.930Z,13.50
2018-12-03T02:48:11.671Z,13.46
2018-12-03T02:53:10.137Z,13.41
2018-12-03T02:58:06.440Z,13.23
2018-12-03T03:03:02.084Z,13.38
2018-12-03T03:07:59.332Z,13.22
2018-12-03T03:12:55.700Z,13.19
2018-12-03T03:17:51.191Z,13.30
2018-12-03T03:22:48.236Z,13.31
2018-12-03T03:27:44.037Z,13.31
2018-12-03T03:32:39.858Z,13.30
2018-12-03T03:37:36.790Z,13.35
2018-12-03T03:42:32.469Z,13.37
2018-12-03T03:47:28.288Z,13.38
2018-12-03T03:52:24.298Z,13.46
2018-12-03T03:57:20.229Z,13.53
2018-12-03T04:02:16.888Z,13.47
2018-12-03T04:07:13.010Z,13.42
2018-12-03T04:12:10.915Z,13.41
2018-12-03T04:17:06.384Z,13.42
2018-12-03T04:22:02.234Z,13.41
2018-12-03T04:26:59.027Z,13.20
2018-12-03T04:31:54.577Z,13.19
2018-12-03T04:36:50.255Z,13.15
2018-12-03T04:41:46.355Z,13.09
2018-12-03T04:46:42.185Z,13.12
2018-12-03T04:51:38.227Z,13.09
2018-12-03T04:56:35.371Z,13.04
2018-12-03T05:01:31.287Z,13.00
2018-12-03T05:06:27.142Z,13.03
2018-12-03T05:11:22.636Z,12.98
2018-12-03T05:16:18.516Z,12.93
2018-12-03T05:21:14.750Z,12.94
2018-12-03T05:26:11.875Z,12.98
2018-12-03T05:31:07.461Z,13.01
2018-12-03T05:36:03.995Z,13.04
2018-12-03T05:41:00.951Z,13.01
2018-12-03T05:45:56.868Z,13.11
2018-12-03T05:50:52.609Z,13.08
2018-12-03T05:55:48.564Z,13.03
2018-12-03T06:00:44.200Z,13.11
2018-12-03T06:05:40.987Z,13.15
2018-12-03T06:10:36.485Z,13.12
2018-12-03T06:15:32.218Z,13.15
2018-12-03T06:20:28.037Z,13.00
2018-12-03T06:25:23.947Z,12.85
2018-12-03T06:30:19.613Z,12.75
2018-12-03T06:35:15.387Z,12.78
2018-12-03T06:40:12.559Z,12.68
2018-12-03T06:45:07.641Z,12.62
2018-12-03T06:50:03.383Z,12.42
2018-12-03T06:54:58.924Z,12.46
2018-12-03T06:59:54.493Z,12.43
2018-12-03T07:04:50.335Z,12.55
2018-12-03T07:09:47.213Z,12.57
2018-12-03T07:14:43.377Z,12.58
2018-12-03T07:19:39.322Z,12.60
2018-12-03T07:24:35.571Z,12.75
2018-12-03T07:29:31.242Z,12.83
2018-12-03T07:34:27.588Z,12.72
2018-12-03T07:39:23.430Z,12.60
2018-12-03T07:44:19.048Z,12.53
2018-12-03T07:49:16.591Z,12.65
2018-12-03T07:54:13.183Z,12.58
2018-12-03T07:59:08.548Z,12.57
2018-12-03T08:04:04.487Z,12.46
2018-12-03T08:09:00.699Z,12.57
2018-12-03T08:13:56.625Z,12.53
2018-12-03T08:18:53.338Z,12.55
2018-12-03T08:23:50.133Z,12.78
2018-12-03T08:28:46.969Z,12.67
2018-12-03T08:33:42.488Z,12.76
2018-12-03T08:38:39.262Z,12.80
2018-12-03T08:43:35.495Z,12.80
2018-12-03T08:48:31.336Z,12.80
2018-12-03T08:53:28.450Z,12.72
2018-12-03T08:58:23.962Z,12.75
2018-12-03T09:03:20.202Z,12.75
2018-12-03T09:08:16.264Z,13.03
2018-12-03T09:13:12.429Z,13.05
2018-12-03T09:18:08.614Z,13.05
2018-12-03T09:23:04.387Z,13.12
2018-12-03T09:28:00.081Z,12.97
2018-12-03T09:32:57.220Z,12.93
2018-12-03T09:37:52.637Z,12.85
2018-12-03T09:42:48.471Z,12.93
2018-12-03T09:47:44.578Z,12.91
2018-12-03T09:52:41.373Z,12.98
2018-12-03T09:57:36.884Z,13.09
2018-12-03T10:02:32.696Z,13.11
2018-12-03T10:07:29.861Z,13.05
2018-12-03T10:12:25.397Z,13.20
2018-12-03T10:17:22.904Z,13.22
2018-12-03T10:22:19.473Z,13.35
2018-12-03T10:27:16.431Z,13.39
2018-12-03T10:32:12.025Z,13.39
2018-12-03T10:37:07.481Z,13.42
2018-12-03T10:42:03.574Z,13.27
2018-12-03T10:47:00.146Z,13.41
2018-12-03T10:51:56.953Z,13.56
2018-12-03T10:56:52.554Z,13.53
2018-12-03T11:01:48.926Z,13.49
2018-12-03T11:06:45.175Z,13.52
2018-12-03T11:11:40.750Z,13.56
2018-12-03T11:16:36.904Z,13.63
2018-12-03T11:21:33.009Z,13.63
2018-12-03T11:26:28.835Z,13.57
2018-12-03T11:31:25.619Z,13.52
2018-12-03T11:36:21.810Z,13.62
2018-12-03T11:41:17.510Z,13.56
2018-12-03T11:51:14.126Z,13.72
2018-12-03T11:56:09.749Z,13.85
2018-12-03T12:01:06.585Z,13.79
2018-12-03T12:06:02.156Z,13.71
2018-12-03T12:10:57.960Z,13.65
2018-12-03T12:15:53.644Z,13.68
2018-12-03T12:20:50.862Z,13.71
2018-12-03T12:25:47.407Z,13.71
2018-12-03T12:30:44.244Z,13.77
2018-12-03T12:35:41.204Z,13.79
2018-12-03T12:40:36.574Z,13.75
2018-12-03T12:45:32.315Z,13.74
2018-12-03T12:50:28.205Z,13.54
2018-12-03T12:55:24.528Z,13.47
2018-12-03T13:00:20.154Z,13.38
2018-12-03T13:05:16.988Z,13.44
2018-12-03T13:10:12.740Z,13.49
2018-12-03T13:15:08.591Z,13.41
2018-12-03T13:20:05.607Z,13.41
2018-12-03T13:25:02.392Z,13.30
2018-12-03T13:29:57.731Z,13.31
2018-12-03T13:34:55.017Z,13.37
2018-12-03T13:39:50.442Z,13.28
2018-12-03T13:44:45.987Z,13.28
2018-12-03T13:49:42.130Z,13.28
2018-12-03T13:54:37.645Z,13.35
2018-12-03T13:59:33.819Z,13.46
2018-12-03T14:04:29.768Z,13.31
2018-12-03T14:09:25.458Z,13.25
2018-12-03T14:14:21.175Z,13.25
2018-12-03T14:19:18.007Z,13.20
2018-12-03T14:24:13.362Z,13.13
2018-12-03T14:29:09.449Z,13.09
2018-12-03T14:34:05.083Z,13.03
2018-12-03T14:39:00.961Z,13.00
2018-12-03T14:43:56.743Z,12.90
2018-12-03T14:48:52.548Z,12.80
2018-12-03T14:53:48.255Z,12.80
2018-12-03T14:58:43.947Z,12.86
2018-12-03T15:03:39.587Z,12.87
2018-12-03T15:08:35.709Z,12.78
2018-12-03T15:13:31.428Z,12.73
2018-12-03T15:18:27.723Z,12.70
2018-12-03T15:23:23.334Z,12.61
2018-12-03T15:28:18.940Z,12.50
2018-12-03T15:33:14.583Z,12.55
2018-12-03T15:38:10.411Z,12.45
2018-12-03T15:43:07.681Z,12.57
2018-12-03T15:48:04.208Z,12.49
2018-12-03T15:52:59.788Z,12.43
2018-12-03T15:57:56.344Z,12.35
2018-12-03T16:02:51.856Z,12.27
2018-12-03T16:07:47.571Z,12.27
2018-12-03T16:12:43.397Z,12.27
2018-12-03T16:17:39.696Z,12.25
2018-12-03T16:22:35.090Z,12.31
2018-12-03T16:27:30.939Z,12.20
2018-12-03T16:32:26.966Z,12.28
2018-12-03T16:37:22.635Z,12.28
2018-12-03T16:42:18.438Z,12.18
2018-12-03T16:47:14.923Z,12.20
2018-12-03T16:52:10.273Z,12.04
2018-12-03T16:57:07.316Z,12.15
2018-12-03T17:02:03.083Z,12.03
2018-12-03T17:06:58.858Z,12.00
2018-12-03T17:11:54.590Z,12.09
2018-12-03T17:16:50.662Z,12.12
2018-12-03T17:21:46.753Z,12.09
2018-12-03T17:26:42.379Z,12.03
2018-12-03T17:31:38.174Z,12.03
2018-12-03T17:36:34.149Z,11.90
2018-12-03T17:41:30.547Z,11.91
2018-12-03T17:46:26.073Z,11.97
2018-12-03T17:51:23.438Z,11.86
2018-12-03T17:56:19.000Z,12.02
2018-12-03T18:01:14.638Z,11.91
2018-12-03T18:06:10.491Z,11.99
2018-12-03T18:11:07.327Z,11.90
2018-12-03T18:16:02.905Z,12.06
2018-12-03T18:20:59.923Z,12.07
2018-12-03T18:25:56.839Z,12.07
2018-12-03T18:30:52.351Z,12.07
2018-12-03T18:35:48.037Z,12.09
2018-12-03T18:40:43.779Z,12.15
2018-12-03T18:45:39.663Z,12.07
2018-12-03T18:50:37.108Z,12.25
2018-12-03T18:55:32.805Z,12.18
2018-12-03T19:00:28.708Z,12.35
2018-12-03T19:05:26.005Z,12.32
2018-12-03T19:10:22.973Z,12.40
2018-12-03T19:15:19.379Z,12.40
2018-12-03T19:20:16.152Z,12.36
2018-12-03T19:25:13.274Z,12.45
2018-12-03T19:30:08.780Z,12.46
2018-12-03T19:35:05.054Z,12.55
2018-12-03T19:40:00.687Z,12.57
2018-12-03T19:44:56.740Z,12.58
2018-12-03T19:49:52.414Z,12.47
2018-12-03T19:54:49.146Z,12.47
2018-12-03T19:59:44.717Z,12.42
2018-12-03T20:04:40.653Z,12.39
2018-12-03T20:09:36.374Z,12.32
2018-12-03T20:14:32.681Z,12.35
2018-12-03T20:19:28.568Z,12.47
2018-12-03T20:24:24.122Z,12.24
2018-12-03T20:29:20.868Z,12.21
2018-12-03T20:34:16.534Z,12.31
2018-12-03T20:39:12.335Z,12.28
2018-12-03T20:44:08.233Z,12.25
2018-12-03T20:49:04.202Z,12.18
2018-12-03T20:53:59.685Z,12.20
2018-12-03T20:58:55.165Z,12.17
2018-12-03T21:03:52.068Z,12.27
2018-12-03T21:08:47.488Z,12.22
2018-12-03T21:13:43.115Z,12.17
2018-12-03T21:18:38.885Z,12.12
2018-12-03T21:23:36.422Z,12.09
2018-12-03T21:28:31.792Z,12.12
2018-12-03T21:33:27.815Z,12.07
2018-12-03T21:38:24.454Z,12.06
2018-12-03T21:43:20.516Z,12.17
2018-12-03T21:48:16.182Z,12.02
2018-12-03T21:53:12.016Z,12.07
2018-12-03T21:58:07.568Z,12.20
2018-12-03T22:03:03.519Z,12.20
2018-12-03T22:07:59.412Z,12.18
2018-12-03T22:12:56.047Z,11.50
2018-12-03T22:17:53.200Z,11.35
2018-12-03T22:22:48.905Z,11.17
2018-12-03T22:27:44.514Z,11.00
2018-12-03T22:32:39.980Z,10.99
2018-12-03T22:37:37.004Z,11.05
2018-12-03T22:42:32.748Z,10.99
2018-12-03T22:47:28.568Z,11.00
2018-12-03T22:52:24.990Z,10.86
2018-12-03T22:57:20.876Z,10.59
2018-12-03T23:02:17.649Z,10.35
2018-12-03T23:07:12.898Z,10.10
2018-12-03T23:12:08.255Z," 9.92"
2018-12-03T23:17:03.927Z," 9.74"
2018-12-03T23:21:59.508Z," 9.72"
2018-12-03T23:26:55.005Z," 9.56"
2018-12-03T23:31:50.793Z," 9.65"
2018-12-03T23:36:47.607Z," 9.73"
2018-12-03T23:41:42.978Z," 9.58"
2018-12-03T23:46:39.481Z," 9.43"
2018-12-03T23:51:36.495Z," 9.39"
2018-12-03T23:56:31.596Z," 9.41"
